Southwest Washington Regional Airport Kelso US
ICAO: KKLS
IATA: KLS
Category: Medium
Scheduled Services: No

Elevation: 20 ft
TransAlt. 18000 ft.

Airport Communications:
AWOS 3:135.075
SEATTLE CNTR:124.2
SEATTLE RDO:122.25
CTAF/UNICOM:122.8

KKLS Zoom In..

Runways:

(A) RW 12 length 4391 ft width 100 ft
---- / hdg 123

(B) RW 30 length 4391 ft width 100 ft
---- / hdg 303

Location; KKLS
Day. 30 / Time. 20.15 Zulu
* Altimeter: 29.85
* Temperature: 14° c. 57.2°f.
* Wind from: 290° Speed 08 kn with Gusts up to 15 kn.
Dewpoint: 09° c.
Visibility: 10 Statute Miles.
Clouds: Few 2400 ft.
Clouds: Broken 3700 ft.
Clouds: Overcast 12000 ft.

KKLS 302015Z AUTO 29008G15KT 10SM FEW024 BKN037 OVC120 14/09 A2985 RMK AO2 LTG DSNT NE


Wind From 290°
Speed 08 kn.

 
 
jpsmedia worldairports.se 2020   terms of use